sensor_id;sensor_type;location;lat;lon;timestamp;P1;durP1;ratioP1;P2;durP2;ratioP2
22644;SDS011;11489;50.834;6.752;2022-10-23T00:00:32;4.40;;;2.80;;
22644;SDS011;11489;50.834;6.752;2022-10-23T00:02:58;7.22;;;2.80;;
22644;SDS011;11489;50.834;6.752;2022-10-23T00:05:24;6.20;;;2.65;;
22644;SDS011;11489;50.834;6.752;2022-10-23T00:07:51;8.27;;;3.35;;
22644;SDS011;11489;50.834;6.752;2022-10-23T00:10:19;4.00;;;2.40;;
22644;SDS011;11489;50.834;6.752;2022-10-23T00:12:45;12.00;;;3.75;;
22644;SDS011;11489;50.834;6.752;2022-10-23T00:15:11;6.18;;;3.50;;
22644;SDS011;11489;50.834;6.752;2022-10-23T00:17:37;6.43;;;2.75;;
22644;SDS011;11489;50.834;6.752;2022-10-23T00:20:04;6.05;;;2.90;;
22644;SDS011;11489;50.834;6.752;2022-10-23T00:22:31;4.40;;;2.45;;
22644;SDS011;11489;50.834;6.752;2022-10-23T00:24:56;18.05;;;2.90;;
22644;SDS011;11489;50.834;6.752;2022-10-23T00:27:22;9.38;;;3.13;;
22644;SDS011;11489;50.834;6.752;2022-10-23T00:29:48;6.45;;;2.60;;
22644;SDS011;11489;50.834;6.752;2022-10-23T00:32:14;6.53;;;2.90;;
22644;SDS011;11489;50.834;6.752;2022-10-23T00:34:39;6.28;;;2.78;;
22644;SDS011;11489;50.834;6.752;2022-10-23T00:37:05;5.22;;;2.78;;
22644;SDS011;11489;50.834;6.752;2022-10-23T00:39:31;7.70;;;2.63;;
22644;SDS011;11489;50.834;6.752;2022-10-23T00:41:56;7.97;;;2.88;;
22644;SDS011;11489;50.834;6.752;2022-10-23T00:46:48;9.40;;;3.00;;
22644;SDS011;11489;50.834;6.752;2022-10-23T00:49:14;4.72;;;2.60;;
22644;SDS011;11489;50.834;6.752;2022-10-23T00:51:42;4.65;;;2.72;;
22644;SDS011;11489;50.834;6.752;2022-10-23T00:54:11;6.78;;;2.60;;
22644;SDS011;11489;50.834;6.752;2022-10-23T00:56:38;5.53;;;2.42;;
22644;SDS011;11489;50.834;6.752;2022-10-23T00:59:06;8.02;;;3.08;;
22644;SDS011;11489;50.834;6.752;2022-10-23T01:01:31;10.73;;;2.97;;
22644;SDS011;11489;50.834;6.752;2022-10-23T01:03:57;8.10;;;3.05;;
22644;SDS011;11489;50.834;6.752;2022-10-23T01:06:30;8.90;;;2.90;;
22644;SDS011;11489;50.834;6.752;2022-10-23T01:11:52;7.95;;;3.15;;
22644;SDS011;11489;50.834;6.752;2022-10-23T01:14:38;6.15;;;2.92;;
22644;SDS011;11489;50.834;6.752;2022-10-23T01:17:18;5.57;;;2.95;;
22644;SDS011;11489;50.834;6.752;2022-10-23T01:22:26;5.45;;;2.80;;
22644;SDS011;11489;50.834;6.752;2022-10-23T01:25:19;6.05;;;2.72;;
22644;SDS011;11489;50.834;6.752;2022-10-23T01:28:01;7.80;;;3.00;;
22644;SDS011;11489;50.834;6.752;2022-10-23T01:30:31;8.75;;;3.30;;
22644;SDS011;11489;50.834;6.752;2022-10-23T01:33:07;6.65;;;3.05;;
22644;SDS011;11489;50.834;6.752;2022-10-23T01:35:39;5.45;;;3.00;;
22644;SDS011;11489;50.834;6.752;2022-10-23T01:38:12;8.25;;;3.00;;
22644;SDS011;11489;50.834;6.752;2022-10-23T01:40:42;6.55;;;3.10;;
22644;SDS011;11489;50.834;6.752;2022-10-23T01:43:14;8.43;;;2.83;;
22644;SDS011;11489;50.834;6.752;2022-10-23T01:45:48;5.95;;;2.53;;
22644;SDS011;11489;50.834;6.752;2022-10-23T01:48:18;12.93;;;3.13;;
22644;SDS011;11489;50.834;6.752;2022-10-23T01:50:48;6.63;;;2.88;;
22644;SDS011;11489;50.834;6.752;2022-10-23T01:53:16;10.52;;;3.20;;
22644;SDS011;11489;50.834;6.752;2022-10-23T01:55:44;6.32;;;3.08;;
22644;SDS011;11489;50.834;6.752;2022-10-23T01:58:11;8.30;;;3.00;;
22644;SDS011;11489;50.834;6.752;2022-10-23T02:00:39;6.80;;;3.08;;
22644;SDS011;11489;50.834;6.752;2022-10-23T02:03:08;6.60;;;2.97;;
22644;SDS011;11489;50.834;6.752;2022-10-23T02:05:37;8.20;;;2.67;;
22644;SDS011;11489;50.834;6.752;2022-10-23T02:08:03;9.15;;;2.80;;
22644;SDS011;11489;50.834;6.752;2022-10-23T02:11:13;5.47;;;2.90;;
22644;SDS011;11489;50.834;6.752;2022-10-23T02:13:32;5.80;;;2.63;;
22644;SDS011;11489;50.834;6.752;2022-10-23T02:16:07;5.82;;;2.63;;
22644;SDS011;11489;50.834;6.752;2022-10-23T02:24:26;5.47;;;2.75;;
22644;SDS011;11489;50.834;6.752;2022-10-23T02:26:56;7.05;;;3.20;;
22644;SDS011;11489;50.834;6.752;2022-10-23T02:29:27;6.97;;;3.10;;
22644;SDS011;11489;50.834;6.752;2022-10-23T02:31:59;6.43;;;2.85;;
22644;SDS011;11489;50.834;6.752;2022-10-23T02:34:26;5.97;;;3.08;;
22644;SDS011;11489;50.834;6.752;2022-10-23T02:36:52;7.47;;;2.83;;
22644;SDS011;11489;50.834;6.752;2022-10-23T02:39:19;9.30;;;2.88;;
22644;SDS011;11489;50.834;6.752;2022-10-23T02:41:48;6.32;;;2.92;;
22644;SDS011;11489;50.834;6.752;2022-10-23T02:47:08;4.70;;;2.67;;
22644;SDS011;11489;50.834;6.752;2022-10-23T02:49:56;8.63;;;3.30;;
22644;SDS011;11489;50.834;6.752;2022-10-23T02:55:21;4.57;;;2.60;;
22644;SDS011;11489;50.834;6.752;2022-10-23T03:00:19;9.70;;;3.00;;
22644;SDS011;11489;50.834;6.752;2022-10-23T03:02:59;4.90;;;2.65;;
22644;SDS011;11489;50.834;6.752;2022-10-23T03:05:40;7.00;;;2.83;;
22644;SDS011;11489;50.834;6.752;2022-10-23T03:08:09;4.90;;;2.67;;
22644;SDS011;11489;50.834;6.752;2022-10-23T03:10:36;4.63;;;2.78;;
22644;SDS011;11489;50.834;6.752;2022-10-23T03:13:02;6.22;;;3.13;;
22644;SDS011;11489;50.834;6.752;2022-10-23T03:15:28;4.63;;;2.67;;
22644;SDS011;11489;50.834;6.752;2022-10-23T03:17:54;4.53;;;2.53;;
22644;SDS011;11489;50.834;6.752;2022-10-23T03:20:19;5.00;;;2.70;;
22644;SDS011;11489;50.834;6.752;2022-10-23T03:22:45;9.82;;;2.53;;
22644;SDS011;11489;50.834;6.752;2022-10-23T03:25:11;8.38;;;2.92;;
22644;SDS011;11489;50.834;6.752;2022-10-23T03:27:36;4.57;;;2.70;;
22644;SDS011;11489;50.834;6.752;2022-10-23T03:30:02;6.30;;;2.63;;
22644;SDS011;11489;50.834;6.752;2022-10-23T03:32:29;14.18;;;3.30;;
22644;SDS011;11489;50.834;6.752;2022-10-23T03:34:55;6.43;;;2.38;;
22644;SDS011;11489;50.834;6.752;2022-10-23T03:37:20;7.00;;;2.70;;
22644;SDS011;11489;50.834;6.752;2022-10-23T03:39:46;5.85;;;2.70;;
22644;SDS011;11489;50.834;6.752;2022-10-23T03:42:12;8.20;;;3.08;;
22644;SDS011;11489;50.834;6.752;2022-10-23T03:44:38;5.38;;;2.70;;
22644;SDS011;11489;50.834;6.752;2022-10-23T03:47:03;4.93;;;2.47;;
22644;SDS011;11489;50.834;6.752;2022-10-23T03:49:29;7.70;;;3.25;;
22644;SDS011;11489;50.834;6.752;2022-10-23T03:51:55;6.47;;;2.55;;
22644;SDS011;11489;50.834;6.752;2022-10-23T03:54:22;4.13;;;2.60;;
22644;SDS011;11489;50.834;6.752;2022-10-23T03:56:49;8.90;;;2.85;;
22644;SDS011;11489;50.834;6.752;2022-10-23T03:59:15;6.38;;;2.85;;
22644;SDS011;11489;50.834;6.752;2022-10-23T04:01:41;7.22;;;2.90;;
22644;SDS011;11489;50.834;6.752;2022-10-23T04:04:06;5.65;;;3.15;;
22644;SDS011;11489;50.834;6.752;2022-10-23T04:06:32;4.93;;;2.72;;
22644;SDS011;11489;50.834;6.752;2022-10-23T04:08:58;6.75;;;2.75;;
22644;SDS011;11489;50.834;6.752;2022-10-23T04:11:24;7.40;;;3.15;;
22644;SDS011;11489;50.834;6.752;2022-10-23T04:13:49;6.63;;;2.53;;
22644;SDS011;11489;50.834;6.752;2022-10-23T04:16:15;4.72;;;3.00;;
22644;SDS011;11489;50.834;6.752;2022-10-23T04:18:41;5.03;;;2.78;;
22644;SDS011;11489;50.834;6.752;2022-10-23T04:21:07;6.97;;;2.70;;
22644;SDS011;11489;50.834;6.752;2022-10-23T04:23:33;5.20;;;2.40;;
22644;SDS011;11489;50.834;6.752;2022-10-23T04:25:59;6.38;;;2.55;;
22644;SDS011;11489;50.834;6.752;2022-10-23T04:28:25;7.10;;;2.92;;
22644;SDS011;11489;50.834;6.752;2022-10-23T04:30:50;6.35;;;2.50;;
22644;SDS011;11489;50.834;6.752;2022-10-23T04:33:16;4.93;;;2.80;;
22644;SDS011;11489;50.834;6.752;2022-10-23T04:35:42;6.60;;;2.35;;
22644;SDS011;11489;50.834;6.752;2022-10-23T04:38:08;5.90;;;2.80;;
22644;SDS011;11489;50.834;6.752;2022-10-23T04:40:33;4.65;;;2.67;;
22644;SDS011;11489;50.834;6.752;2022-10-23T04:42:59;10.73;;;2.83;;
22644;SDS011;11489;50.834;6.752;2022-10-23T04:45:25;5.53;;;2.47;;
22644;SDS011;11489;50.834;6.752;2022-10-23T04:47:51;4.90;;;2.63;;
22644;SDS011;11489;50.834;6.752;2022-10-23T04:50:17;9.18;;;3.10;;
22644;SDS011;11489;50.834;6.752;2022-10-23T04:52:44;3.75;;;2.70;;
22644;SDS011;11489;50.834;6.752;2022-10-23T04:55:10;4.65;;;2.65;;
22644;SDS011;11489;50.834;6.752;2022-10-23T04:57:36;7.18;;;2.67;;
22644;SDS011;11489;50.834;6.752;2022-10-23T05:00:03;8.80;;;2.60;;
22644;SDS011;11489;50.834;6.752;2022-10-23T05:02:30;10.63;;;3.13;;
22644;SDS011;11489;50.834;6.752;2022-10-23T05:04:56;6.55;;;3.05;;
22644;SDS011;11489;50.834;6.752;2022-10-23T05:07:21;5.53;;;2.70;;
22644;SDS011;11489;50.834;6.752;2022-10-23T05:09:47;6.32;;;2.75;;
22644;SDS011;11489;50.834;6.752;2022-10-23T05:12:13;5.57;;;2.60;;
22644;SDS011;11489;50.834;6.752;2022-10-23T05:14:38;8.80;;;3.00;;
22644;SDS011;11489;50.834;6.752;2022-10-23T05:17:06;6.00;;;2.60;;
22644;SDS011;11489;50.834;6.752;2022-10-23T05:19:38;4.75;;;2.78;;
22644;SDS011;11489;50.834;6.752;2022-10-23T05:22:08;5.45;;;2.63;;
22644;SDS011;11489;50.834;6.752;2022-10-23T05:24:35;3.70;;;2.55;;
22644;SDS011;11489;50.834;6.752;2022-10-23T05:27:00;6.65;;;2.65;;
22644;SDS011;11489;50.834;6.752;2022-10-23T05:29:26;6.40;;;2.63;;
22644;SDS011;11489;50.834;6.752;2022-10-23T05:31:53;5.85;;;2.85;;
22644;SDS011;11489;50.834;6.752;2022-10-23T05:34:21;4.75;;;2.97;;
22644;SDS011;11489;50.834;6.752;2022-10-23T05:36:49;6.72;;;2.97;;
22644;SDS011;11489;50.834;6.752;2022-10-23T05:39:16;6.85;;;2.67;;
22644;SDS011;11489;50.834;6.752;2022-10-23T05:41:42;7.80;;;2.78;;
22644;SDS011;11489;50.834;6.752;2022-10-23T05:44:07;6.47;;;2.95;;
22644;SDS011;11489;50.834;6.752;2022-10-23T05:46:33;4.10;;;2.80;;
22644;SDS011;11489;50.834;6.752;2022-10-23T05:48:58;6.00;;;3.10;;
22644;SDS011;11489;50.834;6.752;2022-10-23T05:51:24;6.70;;;3.13;;
22644;SDS011;11489;50.834;6.752;2022-10-23T05:53:50;10.38;;;2.70;;
22644;SDS011;11489;50.834;6.752;2022-10-23T05:56:17;5.55;;;2.97;;
22644;SDS011;11489;50.834;6.752;2022-10-23T05:58:43;7.07;;;2.78;;
22644;SDS011;11489;50.834;6.752;2022-10-23T06:01:10;5.22;;;3.08;;
22644;SDS011;11489;50.834;6.752;2022-10-23T06:03:38;9.20;;;2.85;;
22644;SDS011;11489;50.834;6.752;2022-10-23T06:06:04;6.75;;;3.00;;
22644;SDS011;11489;50.834;6.752;2022-10-23T06:08:31;6.18;;;2.80;;
22644;SDS011;11489;50.834;6.752;2022-10-23T06:11:03;7.05;;;2.80;;
22644;SDS011;11489;50.834;6.752;2022-10-23T06:13:33;5.55;;;2.78;;
22644;SDS011;11489;50.834;6.752;2022-10-23T06:16:06;9.00;;;2.95;;
22644;SDS011;11489;50.834;6.752;2022-10-23T06:18:42;6.80;;;2.90;;
22644;SDS011;11489;50.834;6.752;2022-10-23T06:21:08;7.90;;;3.20;;
22644;SDS011;11489;50.834;6.752;2022-10-23T06:23:34;9.82;;;2.90;;
22644;SDS011;11489;50.834;6.752;2022-10-23T06:26:02;8.20;;;3.03;;
22644;SDS011;11489;50.834;6.752;2022-10-23T06:28:28;4.60;;;3.17;;
22644;SDS011;11489;50.834;6.752;2022-10-23T06:30:54;7.88;;;3.08;;
22644;SDS011;11489;50.834;6.752;2022-10-23T06:33:20;7.60;;;2.78;;
22644;SDS011;11489;50.834;6.752;2022-10-23T06:35:46;7.68;;;3.20;;
22644;SDS011;11489;50.834;6.752;2022-10-23T06:38:11;9.18;;;3.22;;
22644;SDS011;11489;50.834;6.752;2022-10-23T06:40:37;6.40;;;3.00;;
22644;SDS011;11489;50.834;6.752;2022-10-23T06:43:03;5.10;;;2.90;;
22644;SDS011;11489;50.834;6.752;2022-10-23T06:45:29;5.95;;;3.13;;
22644;SDS011;11489;50.834;6.752;2022-10-23T06:47:58;7.88;;;2.72;;
22644;SDS011;11489;50.834;6.752;2022-10-23T06:50:24;4.75;;;2.70;;
22644;SDS011;11489;50.834;6.752;2022-10-23T06:52:51;6.35;;;2.58;;
22644;SDS011;11489;50.834;6.752;2022-10-23T06:55:17;6.22;;;2.60;;
22644;SDS011;11489;50.834;6.752;2022-10-23T06:57:43;5.47;;;2.88;;
22644;SDS011;11489;50.834;6.752;2022-10-23T07:00:09;8.55;;;2.55;;
22644;SDS011;11489;50.834;6.752;2022-10-23T07:02:35;4.97;;;2.60;;
22644;SDS011;11489;50.834;6.752;2022-10-23T07:05:01;4.47;;;2.80;;
22644;SDS011;11489;50.834;6.752;2022-10-23T07:07:30;5.88;;;2.70;;
22644;SDS011;11489;50.834;6.752;2022-10-23T07:09:56;6.70;;;2.50;;
22644;SDS011;11489;50.834;6.752;2022-10-23T07:12:21;7.57;;;2.83;;
22644;SDS011;11489;50.834;6.752;2022-10-23T07:14:47;5.63;;;2.75;;
22644;SDS011;11489;50.834;6.752;2022-10-23T07:17:13;4.97;;;2.88;;
22644;SDS011;11489;50.834;6.752;2022-10-23T07:19:38;5.47;;;2.90;;
22644;SDS011;11489;50.834;6.752;2022-10-23T07:22:04;3.25;;;2.40;;
22644;SDS011;11489;50.834;6.752;2022-10-23T07:24:30;5.93;;;2.75;;
22644;SDS011;11489;50.834;6.752;2022-10-23T07:27:01;3.10;;;2.30;;
22644;SDS011;11489;50.834;6.752;2022-10-23T07:29:27;7.57;;;2.60;;
22644;SDS011;11489;50.834;6.752;2022-10-23T07:31:53;5.03;;;2.22;;
22644;SDS011;11489;50.834;6.752;2022-10-23T07:34:19;6.13;;;2.50;;
22644;SDS011;11489;50.834;6.752;2022-10-23T07:36:45;5.53;;;2.80;;
22644;SDS011;11489;50.834;6.752;2022-10-23T07:39:11;5.20;;;2.65;;
22644;SDS011;11489;50.834;6.752;2022-10-23T07:41:36;5.57;;;2.33;;
22644;SDS011;11489;50.834;6.752;2022-10-23T07:44:02;7.70;;;2.88;;
22644;SDS011;11489;50.834;6.752;2022-10-23T07:46:28;6.15;;;3.00;;
22644;SDS011;11489;50.834;6.752;2022-10-23T07:48:54;7.72;;;2.50;;
22644;SDS011;11489;50.834;6.752;2022-10-23T07:51:19;4.70;;;2.90;;
22644;SDS011;11489;50.834;6.752;2022-10-23T07:53:45;7.72;;;2.75;;
22644;SDS011;11489;50.834;6.752;2022-10-23T07:58:41;4.32;;;2.90;;
22644;SDS011;11489;50.834;6.752;2022-10-23T08:01:21;5.03;;;2.47;;
22644;SDS011;11489;50.834;6.752;2022-10-23T08:03:51;5.50;;;2.40;;
22644;SDS011;11489;50.834;6.752;2022-10-23T08:06:16;9.00;;;2.83;;
22644;SDS011;11489;50.834;6.752;2022-10-23T08:08:42;7.65;;;3.03;;
22644;SDS011;11489;50.834;6.752;2022-10-23T08:11:08;7.60;;;2.60;;
22644;SDS011;11489;50.834;6.752;2022-10-23T08:13:37;6.75;;;2.60;;
22644;SDS011;11489;50.834;6.752;2022-10-23T08:16:02;5.28;;;2.58;;
22644;SDS011;11489;50.834;6.752;2022-10-23T08:18:28;7.95;;;2.70;;
22644;SDS011;11489;50.834;6.752;2022-10-23T08:20:58;3.60;;;2.53;;
22644;SDS011;11489;50.834;6.752;2022-10-23T08:23:25;4.32;;;2.67;;
22644;SDS011;11489;50.834;6.752;2022-10-23T08:25:55;6.57;;;2.58;;
22644;SDS011;11489;50.834;6.752;2022-10-23T08:28:23;4.35;;;2.42;;
22644;SDS011;11489;50.834;6.752;2022-10-23T08:30:48;6.07;;;2.20;;
22644;SDS011;11489;50.834;6.752;2022-10-23T08:33:14;4.70;;;2.35;;
22644;SDS011;11489;50.834;6.752;2022-10-23T08:35:39;5.43;;;2.20;;
22644;SDS011;11489;50.834;6.752;2022-10-23T08:38:05;7.22;;;2.80;;
22644;SDS011;11489;50.834;6.752;2022-10-23T08:40:31;5.63;;;2.33;;
22644;SDS011;11489;50.834;6.752;2022-10-23T08:43:04;4.53;;;2.35;;
22644;SDS011;11489;50.834;6.752;2022-10-23T08:48:27;5.82;;;2.17;;
22644;SDS011;11489;50.834;6.752;2022-10-23T08:50:58;8.13;;;2.42;;
22644;SDS011;11489;50.834;6.752;2022-10-23T08:53:34;6.03;;;2.10;;
22644;SDS011;11489;50.834;6.752;2022-10-23T08:56:14;3.70;;;2.13;;
22644;SDS011;11489;50.834;6.752;2022-10-23T08:58:55;5.90;;;2.22;;
22644;SDS011;11489;50.834;6.752;2022-10-23T09:01:42;4.47;;;2.15;;
22644;SDS011;11489;50.834;6.752;2022-10-23T09:04:24;4.63;;;1.83;;
22644;SDS011;11489;50.834;6.752;2022-10-23T09:06:54;8.38;;;2.20;;
22644;SDS011;11489;50.834;6.752;2022-10-23T09:10:00;6.30;;;2.15;;
22644;SDS011;11489;50.834;6.752;2022-10-23T09:12:39;4.18;;;2.30;;
22644;SDS011;11489;50.834;6.752;2022-10-23T09:18:09;4.28;;;2.03;;
22644;SDS011;11489;50.834;6.752;2022-10-23T09:20:38;3.30;;;1.92;;
22644;SDS011;11489;50.834;6.752;2022-10-23T09:23:14;4.88;;;2.05;;
22644;SDS011;11489;50.834;6.752;2022-10-23T09:25:48;3.22;;;1.65;;
22644;SDS011;11489;50.834;6.752;2022-10-23T09:30:49;3.22;;;1.90;;
22644;SDS011;11489;50.834;6.752;2022-10-23T09:33:17;5.93;;;1.90;;
22644;SDS011;11489;50.834;6.752;2022-10-23T09:35:55;3.30;;;2.10;;
22644;SDS011;11489;50.834;6.752;2022-10-23T09:38:26;3.85;;;1.92;;
22644;SDS011;11489;50.834;6.752;2022-10-23T09:40:52;4.72;;;1.80;;
22644;SDS011;11489;50.834;6.752;2022-10-23T09:43:18;3.85;;;1.98;;
22644;SDS011;11489;50.834;6.752;2022-10-23T09:46:11;3.85;;;1.95;;
22644;SDS011;11489;50.834;6.752;2022-10-23T09:48:36;4.95;;;1.80;;
22644;SDS011;11489;50.834;6.752;2022-10-23T09:51:12;2.90;;;1.95;;
22644;SDS011;11489;50.834;6.752;2022-10-23T09:53:49;3.63;;;1.50;;
22644;SDS011;11489;50.834;6.752;2022-10-23T09:59:36;5.53;;;1.70;;
22644;SDS011;11489;50.834;6.752;2022-10-23T10:01:47;4.82;;;1.50;;
22644;SDS011;11489;50.834;6.752;2022-10-23T10:04:14;2.85;;;1.52;;
22644;SDS011;11489;50.834;6.752;2022-10-23T10:06:41;3.75;;;1.45;;
22644;SDS011;11489;50.834;6.752;2022-10-23T10:09:14;4.05;;;1.33;;
22644;SDS011;11489;50.834;6.752;2022-10-23T10:19:31;3.97;;;1.77;;
22644;SDS011;11489;50.834;6.752;2022-10-23T10:22:19;3.08;;;1.65;;
22644;SDS011;11489;50.834;6.752;2022-10-23T10:25:08;3.72;;;1.95;;
22644;SDS011;11489;50.834;6.752;2022-10-23T10:27:49;5.43;;;1.65;;
22644;SDS011;11489;50.834;6.752;2022-10-23T10:39:20;3.95;;;1.30;;
22644;SDS011;11489;50.834;6.752;2022-10-23T10:42:30;6.25;;;1.38;;
22644;SDS011;11489;50.834;6.752;2022-10-23T10:53:30;3.40;;;1.55;;
22644;SDS011;11489;50.834;6.752;2022-10-23T10:56:07;3.22;;;1.23;;
22644;SDS011;11489;50.834;6.752;2022-10-23T10:58:38;2.17;;;1.30;;
22644;SDS011;11489;50.834;6.752;2022-10-23T11:01:10;1.98;;;1.40;;
22644;SDS011;11489;50.834;6.752;2022-10-23T11:06:42;2.17;;;1.35;;
22644;SDS011;11489;50.834;6.752;2022-10-23T11:09:15;2.35;;;1.50;;
22644;SDS011;11489;50.834;6.752;2022-10-23T11:11:44;2.25;;;1.30;;
22644;SDS011;11489;50.834;6.752;2022-10-23T11:14:18;4.38;;;1.13;;
22644;SDS011;11489;50.834;6.752;2022-10-23T11:16:50;1.90;;;1.10;;
22644;SDS011;11489;50.834;6.752;2022-10-23T11:22:24;2.63;;;1.02;;
22644;SDS011;11489;50.834;6.752;2022-10-23T11:25:05;2.45;;;1.17;;
22644;SDS011;11489;50.834;6.752;2022-10-23T11:28:02;3.15;;;1.30;;
22644;SDS011;11489;50.834;6.752;2022-10-23T11:33:21;2.03;;;1.30;;
22644;SDS011;11489;50.834;6.752;2022-10-23T11:39:04;3.42;;;1.10;;
22644;SDS011;11489;50.834;6.752;2022-10-23T11:41:45;1.80;;;1.38;;
22644;SDS011;11489;50.834;6.752;2022-10-23T11:47:04;1.40;;;1.10;;
22644;SDS011;11489;50.834;6.752;2022-10-23T11:49:50;3.10;;;1.08;;
22644;SDS011;11489;50.834;6.752;2022-10-23T11:52:28;6.03;;;1.40;;
22644;SDS011;11489;50.834;6.752;2022-10-23T11:55:03;1.95;;;1.42;;
22644;SDS011;11489;50.834;6.752;2022-10-23T11:57:42;2.63;;;1.35;;
22644;SDS011;11489;50.834;6.752;2022-10-23T12:00:19;4.05;;;1.40;;
22644;SDS011;11489;50.834;6.752;2022-10-23T12:02:49;1.38;;;1.27;;
22644;SDS011;11489;50.834;6.752;2022-10-23T12:08:06;2.25;;;1.15;;
22644;SDS011;11489;50.834;6.752;2022-10-23T12:10:45;2.92;;;1.42;;
22644;SDS011;11489;50.834;6.752;2022-10-23T12:13:29;2.45;;;1.52;;
22644;SDS011;11489;50.834;6.752;2022-10-23T12:16:02;2.53;;;1.40;;
22644;SDS011;11489;50.834;6.752;2022-10-23T12:18:29;4.25;;;1.40;;
22644;SDS011;11489;50.834;6.752;2022-10-23T12:21:02;2.70;;;1.23;;
22644;SDS011;11489;50.834;6.752;2022-10-23T12:23:35;3.45;;;1.55;;
22644;SDS011;11489;50.834;6.752;2022-10-23T12:29:04;2.63;;;1.75;;
22644;SDS011;11489;50.834;6.752;2022-10-23T12:32:11;2.25;;;1.38;;
22644;SDS011;11489;50.834;6.752;2022-10-23T12:37:59;7.13;;;1.20;;
22644;SDS011;11489;50.834;6.752;2022-10-23T12:40:33;4.05;;;1.63;;
22644;SDS011;11489;50.834;6.752;2022-10-23T12:42:59;7.95;;;1.80;;
22644;SDS011;11489;50.834;6.752;2022-10-23T12:45:36;3.05;;;1.40;;
22644;SDS011;11489;50.834;6.752;2022-10-23T12:48:04;2.72;;;1.50;;
22644;SDS011;11489;50.834;6.752;2022-10-23T12:50:30;4.60;;;1.67;;
22644;SDS011;11489;50.834;6.752;2022-10-23T12:53:04;4.68;;;1.83;;
22644;SDS011;11489;50.834;6.752;2022-10-23T12:58:32;3.95;;;1.50;;
22644;SDS011;11489;50.834;6.752;2022-10-23T13:01:03;3.35;;;1.50;;
22644;SDS011;11489;50.834;6.752;2022-10-23T13:03:30;3.13;;;1.50;;
22644;SDS011;11489;50.834;6.752;2022-10-23T13:05:58;3.92;;;1.92;;
22644;SDS011;11489;50.834;6.752;2022-10-23T13:08:35;2.28;;;1.35;;
22644;SDS011;11489;50.834;6.752;2022-10-23T13:11:04;3.88;;;1.48;;
22644;SDS011;11489;50.834;6.752;2022-10-23T13:13:32;2.75;;;1.70;;
22644;SDS011;11489;50.834;6.752;2022-10-23T13:15:58;3.38;;;1.30;;
22644;SDS011;11489;50.834;6.752;2022-10-23T13:18:24;2.15;;;1.80;;
22644;SDS011;11489;50.834;6.752;2022-10-23T13:23:31;1.85;;;1.48;;
22644;SDS011;11489;50.834;6.752;2022-10-23T13:28:33;2.85;;;1.60;;
22644;SDS011;11489;50.834;6.752;2022-10-23T13:41:16;2.60;;;1.65;;
22644;SDS011;11489;50.834;6.752;2022-10-23T13:43:43;3.55;;;1.50;;
22644;SDS011;11489;50.834;6.752;2022-10-23T13:46:14;5.43;;;1.50;;
22644;SDS011;11489;50.834;6.752;2022-10-23T13:48:40;8.95;;;2.28;;
22644;SDS011;11489;50.834;6.752;2022-10-23T13:51:14;3.30;;;1.75;;
22644;SDS011;11489;50.834;6.752;2022-10-23T13:53:44;3.72;;;1.73;;
22644;SDS011;11489;50.834;6.752;2022-10-23T13:56:13;5.45;;;1.98;;
22644;SDS011;11489;50.834;6.752;2022-10-23T13:58:41;4.22;;;2.00;;
22644;SDS011;11489;50.834;6.752;2022-10-23T14:01:11;3.88;;;2.10;;
22644;SDS011;11489;50.834;6.752;2022-10-23T14:03:50;3.55;;;1.83;;
22644;SDS011;11489;50.834;6.752;2022-10-23T14:06:16;2.30;;;1.75;;
22644;SDS011;11489;50.834;6.752;2022-10-23T14:08:42;4.35;;;1.85;;
22644;SDS011;11489;50.834;6.752;2022-10-23T14:11:09;5.07;;;1.90;;
22644;SDS011;11489;50.834;6.752;2022-10-23T14:13:35;3.13;;;1.90;;
22644;SDS011;11489;50.834;6.752;2022-10-23T14:16:01;2.45;;;1.83;;
22644;SDS011;11489;50.834;6.752;2022-10-23T14:18:27;6.35;;;2.00;;
22644;SDS011;11489;50.834;6.752;2022-10-23T14:20:53;4.70;;;1.80;;
22644;SDS011;11489;50.834;6.752;2022-10-23T14:23:19;2.95;;;1.80;;
22644;SDS011;11489;50.834;6.752;2022-10-23T14:25:44;4.22;;;1.83;;
22644;SDS011;11489;50.834;6.752;2022-10-23T14:28:10;4.03;;;1.92;;
22644;SDS011;11489;50.834;6.752;2022-10-23T14:30:36;3.75;;;2.08;;
22644;SDS011;11489;50.834;6.752;2022-10-23T14:33:02;3.53;;;2.35;;
22644;SDS011;11489;50.834;6.752;2022-10-23T14:35:28;3.30;;;2.08;;
22644;SDS011;11489;50.834;6.752;2022-10-23T14:37:54;2.42;;;1.70;;
22644;SDS011;11489;50.834;6.752;2022-10-23T14:40:21;2.95;;;2.10;;
22644;SDS011;11489;50.834;6.752;2022-10-23T14:42:47;5.45;;;2.22;;
22644;SDS011;11489;50.834;6.752;2022-10-23T14:45:13;3.88;;;2.08;;
22644;SDS011;11489;50.834;6.752;2022-10-23T14:47:38;7.82;;;2.20;;
22644;SDS011;11489;50.834;6.752;2022-10-23T14:50:04;5.68;;;2.58;;
22644;SDS011;11489;50.834;6.752;2022-10-23T14:52:30;3.38;;;2.00;;
22644;SDS011;11489;50.834;6.752;2022-10-23T14:54:56;4.43;;;2.40;;
22644;SDS011;11489;50.834;6.752;2022-10-23T14:57:21;4.28;;;2.15;;
22644;SDS011;11489;50.834;6.752;2022-10-23T14:59:47;2.05;;;1.60;;
22644;SDS011;11489;50.834;6.752;2022-10-23T15:02:14;5.85;;;2.08;;
22644;SDS011;11489;50.834;6.752;2022-10-23T15:04:41;4.70;;;2.22;;
22644;SDS011;11489;50.834;6.752;2022-10-23T15:07:06;4.40;;;3.40;;
22644;SDS011;11489;50.834;6.752;2022-10-23T15:09:32;4.70;;;2.65;;
22644;SDS011;11489;50.834;6.752;2022-10-23T15:12:00;7.00;;;2.42;;
22644;SDS011;11489;50.834;6.752;2022-10-23T15:14:29;4.13;;;2.20;;
22644;SDS011;11489;50.834;6.752;2022-10-23T15:16:55;3.05;;;2.17;;
22644;SDS011;11489;50.834;6.752;2022-10-23T15:19:20;2.67;;;2.00;;
22644;SDS011;11489;50.834;6.752;2022-10-23T15:21:46;5.40;;;2.08;;
22644;SDS011;11489;50.834;6.752;2022-10-23T15:24:12;4.70;;;2.10;;
22644;SDS011;11489;50.834;6.752;2022-10-23T15:26:39;4.30;;;1.60;;
22644;SDS011;11489;50.834;6.752;2022-10-23T15:29:07;4.30;;;2.10;;
22644;SDS011;11489;50.834;6.752;2022-10-23T15:34:02;6.13;;;3.15;;
22644;SDS011;11489;50.834;6.752;2022-10-23T15:36:32;6.03;;;3.28;;
22644;SDS011;11489;50.834;6.752;2022-10-23T15:38:58;6.38;;;3.50;;
22644;SDS011;11489;50.834;6.752;2022-10-23T15:41:28;6.60;;;3.38;;
22644;SDS011;11489;50.834;6.752;2022-10-23T15:43:56;5.68;;;2.75;;
22644;SDS011;11489;50.834;6.752;2022-10-23T15:46:22;6.65;;;3.65;;
22644;SDS011;11489;50.834;6.752;2022-10-23T15:48:48;6.95;;;3.90;;
22644;SDS011;11489;50.834;6.752;2022-10-23T15:51:14;10.85;;;5.22;;
22644;SDS011;11489;50.834;6.752;2022-10-23T15:53:39;9.63;;;5.93;;
22644;SDS011;11489;50.834;6.752;2022-10-23T15:56:05;5.05;;;3.83;;
22644;SDS011;11489;50.834;6.752;2022-10-23T15:58:31;5.05;;;3.00;;
22644;SDS011;11489;50.834;6.752;2022-10-23T16:00:56;3.80;;;2.70;;
22644;SDS011;11489;50.834;6.752;2022-10-23T16:03:23;3.92;;;2.70;;
22644;SDS011;11489;50.834;6.752;2022-10-23T16:05:49;6.50;;;2.60;;
22644;SDS011;11489;50.834;6.752;2022-10-23T16:08:14;6.72;;;2.60;;
22644;SDS011;11489;50.834;6.752;2022-10-23T16:10:40;6.70;;;2.72;;
22644;SDS011;11489;50.834;6.752;2022-10-23T16:13:07;3.70;;;2.40;;
22644;SDS011;11489;50.834;6.752;2022-10-23T16:15:36;3.67;;;2.70;;
22644;SDS011;11489;50.834;6.752;2022-10-23T16:18:02;6.30;;;2.40;;
22644;SDS011;11489;50.834;6.752;2022-10-23T16:20:29;7.38;;;3.35;;
22644;SDS011;11489;50.834;6.752;2022-10-23T16:22:55;7.15;;;3.13;;
22644;SDS011;11489;50.834;6.752;2022-10-23T16:25:20;9.13;;;2.90;;
22644;SDS011;11489;50.834;6.752;2022-10-23T16:27:46;7.43;;;2.72;;
22644;SDS011;11489;50.834;6.752;2022-10-23T16:30:12;5.57;;;3.38;;
22644;SDS011;11489;50.834;6.752;2022-10-23T16:32:39;7.72;;;2.95;;
22644;SDS011;11489;50.834;6.752;2022-10-23T16:35:05;7.70;;;2.83;;
22644;SDS011;11489;50.834;6.752;2022-10-23T16:37:31;6.28;;;3.20;;
22644;SDS011;11489;50.834;6.752;2022-10-23T16:39:57;4.95;;;2.75;;
22644;SDS011;11489;50.834;6.752;2022-10-23T16:42:24;9.23;;;3.20;;
22644;SDS011;11489;50.834;6.752;2022-10-23T16:44:49;6.07;;;2.65;;